Time;durP1;ratioP1;P1;durP2;ratioP2;P2;SDS_P1;SDS_P2;PMS_P1;PMS_P2;Temp;Humidity;BMP_temperature;BMP_pressure;BME280_temperature;BME280_humidity;BME280_pressure;Samples;Min_cycle;Max_cycle;Signal;HPM_P1;HPM_P2
2023/06/08 00:02:17;;;;;;;6.25;2.83;;;;;;;;;;5008663;28;20088;-72
2023/06/08 00:04:46;;;;;;;5.45;3.20;;;;;;;;;;5013447;28;20486;-72
2023/06/08 00:07:14;;;;;;;5.43;2.90;;;;;;;;;;5008640;28;20053;-72
2023/06/08 00:09:40;;;;;;;7.50;3.15;;;;;;;;;;5012062;28;20045;-73
2023/06/08 00:12:06;;;;;;;6.57;3.38;;;;;;;;;;5010773;28;20513;-72
2023/06/08 00:14:35;;;;;;;9.40;3.08;;;;;;;;;;5013429;28;20046;-73
2023/06/08 00:17:04;;;;;;;4.63;2.72;;;;;;;;;;5013211;28;20068;-72
2023/06/08 00:19:33;;;;;;;7.20;2.78;;;;;;;;;;5013665;28;20052;-72
2023/06/08 00:22:04;;;;;;;5.18;2.50;;;;;;;;;;5011706;28;20169;-72
2023/06/08 00:24:33;;;;;;;8.15;2.85;;;;;;;;;;5012319;28;20032;-73
2023/06/08 00:26:59;;;;;;;5.18;3.00;;;;;;;;;;5013263;28;20140;-72
2023/06/08 00:29:24;;;;;;;11.68;3.30;;;;;;;;;;5013235;28;20077;-72
2023/06/08 00:31:50;;;;;;;5.40;2.38;;;;;;;;;;5011070;28;20030;-72
2023/06/08 00:34:15;;;;;;;5.63;2.40;;;;;;;;;;5012006;28;20052;-72
2023/06/08 00:36:40;;;;;;;7.15;3.50;;;;;;;;;;5012248;28;20474;-72
2023/06/08 00:39:06;;;;;;;5.68;2.97;;;;;;;;;;5013092;28;20038;-72
2023/06/08 00:41:31;;;;;;;5.45;2.70;;;;;;;;;;5012670;28;20104;-73
2023/06/08 00:43:57;;;;;;;8.95;2.55;;;;;;;;;;5012511;28;20038;-73
2023/06/08 00:46:24;;;;;;;14.07;3.25;;;;;;;;;;5013309;28;20037;-72
2023/06/08 00:48:51;;;;;;;7.70;3.20;;;;;;;;;;5005360;28;20035;-72
2023/06/08 00:51:17;;;;;;;7.28;2.60;;;;;;;;;;5010767;28;20401;-72
2023/06/08 00:53:43;;;;;;;8.65;2.85;;;;;;;;;;5012437;28;20083;-72
2023/06/08 00:56:09;;;;;;;5.68;2.80;;;;;;;;;;5012878;28;20041;-72
2023/06/08 00:58:37;;;;;;;5.93;3.50;;;;;;;;;;5013285;28;20050;-72
2023/06/08 01:01:03;;;;;;;5.43;2.58;;;;;;;;;;5011322;28;20367;-72
2023/06/08 01:03:35;;;;;;;6.53;2.90;;;;;;;;;;5013115;28;20421;-72
2023/06/08 01:06:04;;;;;;;9.65;2.92;;;;;;;;;;5014708;28;20033;-72
2023/06/08 01:08:57;;;;;;;8.93;2.80;;;;;;;;;;5016963;28;20129;-72
2023/06/08 01:11:27;;;;;;;6.30;2.92;;;;;;;;;;5014636;28;20034;-72
2023/06/08 01:14:07;;;;;;;11.20;3.30;;;;;;;;;;5014032;28;20133;-72
2023/06/08 01:16:36;;;;;;;13.60;3.42;;;;;;;;;;5016655;28;20065;-72
2023/06/08 01:19:08;;;;;;;7.00;2.90;;;;;;;;;;5015504;28;20037;-72
2023/06/08 01:22:10;;;;;;;8.60;2.97;;;;;;;;;;5015095;28;20033;-72
2023/06/08 01:24:38;;;;;;;12.93;3.10;;;;;;;;;;5014234;28;20096;-72
2023/06/08 01:27:08;;;;;;;7.68;2.70;;;;;;;;;;5014621;28;20033;-72
2023/06/08 01:29:34;;;;;;;10.82;3.40;;;;;;;;;;5016576;28;20037;-73
2023/06/08 01:31:59;;;;;;;8.25;2.70;;;;;;;;;;5016160;28;20501;-72
2023/06/08 01:34:25;;;;;;;10.80;3.00;;;;;;;;;;5016723;28;20525;-72
2023/06/08 01:37:04;;;;;;;6.80;2.85;;;;;;;;;;5011514;28;20061;-73
2023/06/08 01:39:59;;;;;;;14.30;3.17;;;;;;;;;;5014625;28;20053;-72
2023/06/08 01:42:25;;;;;;;9.35;3.95;;;;;;;;;;5014783;28;20045;-73
2023/06/08 01:44:56;;;;;;;4.35;2.70;;;;;;;;;;5010346;28;20042;-72
2023/06/08 01:47:23;;;;;;;7.55;3.72;;;;;;;;;;5014795;28;20041;-73
2023/06/08 01:49:49;;;;;;;14.27;2.88;;;;;;;;;;5014950;28;20064;-72
2023/06/08 01:52:14;;;;;;;5.30;2.85;;;;;;;;;;5014741;28;20033;-72
2023/06/08 01:54:40;;;;;;;14.32;3.50;;;;;;;;;;5015576;28;20111;-72
2023/06/08 01:57:06;;;;;;;8.45;3.25;;;;;;;;;;5015313;28;20064;-73
2023/06/08 01:59:31;;;;;;;6.18;3.10;;;;;;;;;;5015365;28;20040;-72
2023/06/08 02:01:56;;;;;;;6.30;3.15;;;;;;;;;;5015277;28;20048;-72
2023/06/08 02:04:22;;;;;;;7.60;3.60;;;;;;;;;;5015856;28;20026;-72
2023/06/08 02:06:47;;;;;;;13.98;2.90;;;;;;;;;;5015779;28;20054;-72
2023/06/08 02:09:12;;;;;;;10.52;3.63;;;;;;;;;;5014423;28;20441;-72
2023/06/08 02:11:38;;;;;;;7.07;3.28;;;;;;;;;;5010925;28;20386;-72
2023/06/08 02:14:03;;;;;;;12.77;3.45;;;;;;;;;;5015513;28;20061;-72
2023/06/08 02:16:29;;;;;;;5.03;2.85;;;;;;;;;;5010747;28;20041;-72
2023/06/08 02:18:54;;;;;;;5.22;2.90;;;;;;;;;;5014980;28;20038;-72
2023/06/08 02:21:19;;;;;;;10.32;3.20;;;;;;;;;;5015198;28;20068;-72
2023/06/08 02:23:45;;;;;;;12.50;2.90;;;;;;;;;;5015731;28;20037;-72
2023/06/08 02:26:10;;;;;;;11.02;3.05;;;;;;;;;;5013968;28;20061;-73
2023/06/08 02:28:35;;;;;;;11.18;3.20;;;;;;;;;;5015263;28;20121;-72
2023/06/08 02:31:03;;;;;;;10.55;3.42;;;;;;;;;;5014926;28;20081;-72
2023/06/08 02:33:28;;;;;;;8.02;3.47;;;;;;;;;;5015470;28;20034;-72
2023/06/08 02:35:53;;;;;;;6.80;2.88;;;;;;;;;;5015178;28;20044;-72
2023/06/08 02:38:19;;;;;;;13.20;2.92;;;;;;;;;;5015423;28;20049;-72
2023/06/08 02:40:44;;;;;;;8.43;3.30;;;;;;;;;;5014894;28;20080;-72
2023/06/08 02:43:10;;;;;;;5.75;3.00;;;;;;;;;;5014542;28;20038;-72
2023/06/08 02:45:35;;;;;;;6.40;2.88;;;;;;;;;;5012057;28;20113;-72
2023/06/08 02:48:01;;;;;;;8.38;3.53;;;;;;;;;;5013232;28;20634;-72
2023/06/08 02:50:26;;;;;;;18.80;3.97;;;;;;;;;;5014046;28;20041;-72
2023/06/08 02:52:52;;;;;;;5.63;3.42;;;;;;;;;;5014388;28;20065;-72
2023/06/08 02:55:18;;;;;;;8.82;3.45;;;;;;;;;;5013969;28;20049;-72
2023/06/08 02:57:43;;;;;;;9.95;3.70;;;;;;;;;;5014720;28;20053;-73
2023/06/08 03:00:12;;;;;;;15.93;4.22;;;;;;;;;;5014343;28;20050;-73
2023/06/08 03:02:37;;;;;;;12.35;4.03;;;;;;;;;;5014435;28;20091;-72
2023/06/08 03:05:03;;;;;;;9.57;4.13;;;;;;;;;;5014672;28;20042;-73
2023/06/08 03:07:33;;;;;;;9.52;3.95;;;;;;;;;;5014316;28;20045;-73
2023/06/08 03:09:59;;;;;;;14.85;3.55;;;;;;;;;;5014320;28;20375;-72
2023/06/08 03:12:25;;;;;;;8.48;3.70;;;;;;;;;;5011862;28;20547;-72
2023/06/08 03:14:50;;;;;;;14.02;4.10;;;;;;;;;;5013469;28;20117;-72
2023/06/08 03:17:17;;;;;;;17.92;3.40;;;;;;;;;;5012913;28;20038;-72
2023/06/08 03:19:43;;;;;;;10.57;3.33;;;;;;;;;;5014564;28;20046;-72
2023/06/08 03:22:08;;;;;;;8.52;4.10;;;;;;;;;;5014228;28;20379;-72
2023/06/08 03:24:34;;;;;;;9.93;3.40;;;;;;;;;;5014475;28;20041;-72
2023/06/08 03:27:00;;;;;;;9.15;3.15;;;;;;;;;;5013807;28;20474;-72
2023/06/08 03:29:26;;;;;;;3.97;2.60;;;;;;;;;;5014130;28;20048;-72
2023/06/08 03:31:51;;;;;;;11.02;3.10;;;;;;;;;;5013501;28;20113;-73
2023/06/08 03:34:18;;;;;;;6.13;3.38;;;;;;;;;;5014232;28;20401;-73
2023/06/08 03:36:43;;;;;;;8.45;3.38;;;;;;;;;;5013962;28;20053;-73
2023/06/08 03:39:09;;;;;;;6.47;2.88;;;;;;;;;;5013848;28;20033;-72
2023/06/08 03:41:35;;;;;;;7.70;3.10;;;;;;;;;;5011941;28;20136;-73
2023/06/08 03:44:01;;;;;;;9.02;3.22;;;;;;;;;;5014030;28;20390;-72
2023/06/08 03:46:26;;;;;;;7.93;3.22;;;;;;;;;;5009237;28;20038;-73
2023/06/08 03:48:51;;;;;;;7.35;3.35;;;;;;;;;;5012887;28;20402;-73
2023/06/08 03:51:18;;;;;;;6.30;3.05;;;;;;;;;;5013462;28;20234;-73
2023/06/08 03:53:44;;;;;;;5.22;3.05;;;;;;;;;;5014031;28;20021;-73
2023/06/08 03:56:09;;;;;;;6.40;3.53;;;;;;;;;;5013285;28;20498;-72
2023/06/08 03:58:35;;;;;;;5.28;2.63;;;;;;;;;;5013600;28;20042;-72
2023/06/08 04:01:00;;;;;;;6.93;2.75;;;;;;;;;;5013374;28;20030;-73
2023/06/08 04:03:27;;;;;;;10.52;2.88;;;;;;;;;;5013678;28;20073;-72
2023/06/08 04:05:52;;;;;;;9.30;3.70;;;;;;;;;;5011830;28;20084;-72
2023/06/08 04:08:18;;;;;;;8.35;3.47;;;;;;;;;;5013669;28;20445;-72
2023/06/08 04:10:44;;;;;;;6.22;3.17;;;;;;;;;;5013549;28;20038;-72
2023/06/08 04:13:09;;;;;;;8.05;3.42;;;;;;;;;;5011888;28;20045;-72
2023/06/08 04:15:35;;;;;;;8.68;3.72;;;;;;;;;;5013774;28;20033;-72
2023/06/08 04:18:02;;;;;;;6.38;3.47;;;;;;;;;;5012064;28;20042;-72
2023/06/08 04:20:27;;;;;;;4.43;2.72;;;;;;;;;;5013629;28;20038;-72
2023/06/08 04:22:53;;;;;;;7.93;3.70;;;;;;;;;;5013003;28;20099;-72
2023/06/08 04:25:19;;;;;;;6.72;3.55;;;;;;;;;;5013524;28;20041;-72
2023/06/08 04:27:46;;;;;;;8.63;3.45;;;;;;;;;;5013089;28;20624;-73
2023/06/08 04:30:12;;;;;;;6.35;3.65;;;;;;;;;;5012897;28;20068;-72
2023/06/08 04:32:37;;;;;;;7.63;3.58;;;;;;;;;;5012206;28;20120;-72
2023/06/08 04:35:03;;;;;;;8.82;3.17;;;;;;;;;;5013326;28;20046;-72
2023/06/08 04:37:29;;;;;;;5.20;3.75;;;;;;;;;;5012535;28;20037;-73
2023/06/08 04:39:56;;;;;;;13.30;3.88;;;;;;;;;;5013359;28;20044;-72
2023/06/08 04:42:23;;;;;;;6.15;4.00;;;;;;;;;;5017070;28;20053;-73
2023/06/08 04:44:50;;;;;;;10.38;4.00;;;;;;;;;;5007600;28;20486;-72
2023/06/08 04:47:16;;;;;;;7.50;3.92;;;;;;;;;;5015998;28;20030;-72
2023/06/08 04:49:41;;;;;;;6.28;4.15;;;;;;;;;;5017026;28;20121;-73
2023/06/08 04:52:09;;;;;;;7.00;3.55;;;;;;;;;;5017123;28;20030;-73
2023/06/08 04:54:36;;;;;;;7.35;4.68;;;;;;;;;;5017108;28;20044;-72
2023/06/08 04:57:03;;;;;;;6.25;3.92;;;;;;;;;;5015767;28;20041;-72
2023/06/08 04:59:28;;;;;;;6.13;3.55;;;;;;;;;;5016626;28;20585;-72
2023/06/08 05:01:54;;;;;;;7.60;4.70;;;;;;;;;;5016175;28;20120;-72
2023/06/08 05:04:20;;;;;;;7.80;3.92;;;;;;;;;;5017042;28;20045;-72
2023/06/08 05:06:46;;;;;;;7.63;4.20;;;;;;;;;;5008741;28;20517;-72
2023/06/08 05:09:12;;;;;;;11.43;4.95;;;;;;;;;;5015935;28;20095;-73
2023/06/08 05:11:38;;;;;;;9.77;4.43;;;;;;;;;;5017066;28;20038;-72
2023/06/08 05:14:03;;;;;;;6.28;3.83;;;;;;;;;;5015561;28;20152;-72
2023/06/08 05:16:28;;;;;;;7.82;4.53;;;;;;;;;;5016251;28;20044;-72
2023/06/08 05:18:54;;;;;;;7.05;4.00;;;;;;;;;;5016870;28;20226;-72
2023/06/08 05:21:19;;;;;;;11.70;4.40;;;;;;;;;;5016405;28;20049;-72
2023/06/08 05:23:44;;;;;;;11.13;5.00;;;;;;;;;;5016460;28;20116;-72
2023/06/08 05:26:10;;;;;;;12.40;5.05;;;;;;;;;;5016208;28;20050;-72
2023/06/08 05:28:35;;;;;;;7.38;4.57;;;;;;;;;;5015483;28;20367;-72
2023/06/08 05:31:01;;;;;;;15.82;4.78;;;;;;;;;;5014507;28;20123;-72
2023/06/08 05:33:26;;;;;;;6.50;4.00;;;;;;;;;;5016477;28;20030;-72
2023/06/08 05:35:51;;;;;;;8.90;4.32;;;;;;;;;;5014917;28;20030;-72
2023/06/08 05:38:19;;;;;;;8.40;4.15;;;;;;;;;;5016124;28;20567;-72
2023/06/08 05:40:44;;;;;;;11.80;3.95;;;;;;;;;;5016223;28;20041;-72
2023/06/08 05:43:10;;;;;;;10.07;4.65;;;;;;;;;;5014706;28;20050;-72
2023/06/08 05:45:35;;;;;;;10.23;4.68;;;;;;;;;;5016252;28;20033;-72
2023/06/08 05:48:00;;;;;;;7.28;3.53;;;;;;;;;;5015845;28;20030;-73
2023/06/08 05:50:26;;;;;;;8.15;4.20;;;;;;;;;;5016161;28;20056;-73
2023/06/08 05:52:51;;;;;;;8.45;4.70;;;;;;;;;;5015579;28;20125;-73
2023/06/08 05:55:16;;;;;;;8.60;4.20;;;;;;;;;;5016039;28;20375;-72
2023/06/08 05:57:42;;;;;;;7.82;3.78;;;;;;;;;;5015531;28;20584;-72
2023/06/08 06:00:12;;;;;;;7.88;4.13;;;;;;;;;;5015432;28;20041;-72
2023/06/08 06:02:37;;;;;;;6.93;4.05;;;;;;;;;;5012742;28;20046;-73
2023/06/08 06:05:03;;;;;;;7.13;3.85;;;;;;;;;;5014791;28;20037;-72
2023/06/08 06:07:28;;;;;;;8.55;5.25;;;;;;;;;;5013659;28;20088;-73
2023/06/08 06:09:53;;;;;;;6.15;3.55;;;;;;;;;;5015748;28;20033;-72
2023/06/08 06:12:19;;;;;;;5.95;3.53;;;;;;;;;;5015469;28;20030;-72
2023/06/08 06:14:44;;;;;;;11.10;3.97;;;;;;;;;;5015354;28;20381;-72
2023/06/08 06:17:11;;;;;;;8.00;3.90;;;;;;;;;;5011868;28;20079;-72
2023/06/08 06:19:37;;;;;;;8.68;3.67;;;;;;;;;;5009551;28;20034;-72
2023/06/08 06:22:07;;;;;;;8.45;3.30;;;;;;;;;;5014378;28;20068;-72
2023/06/08 06:24:32;;;;;;;6.43;3.80;;;;;;;;;;5013533;28;20042;-73
2023/06/08 06:26:58;;;;;;;9.57;3.80;;;;;;;;;;5014966;28;20381;-72
2023/06/08 06:29:24;;;;;;;7.82;2.42;;;;;;;;;;5015652;28;20108;-72
2023/06/08 06:31:49;;;;;;;10.05;3.42;;;;;;;;;;5016645;28;20037;-73
2023/06/08 06:34:15;;;;;;;6.47;2.80;;;;;;;;;;5015273;28;20129;-72
2023/06/08 06:36:40;;;;;;;6.07;3.00;;;;;;;;;;5014160;28;20436;-72
2023/06/08 06:39:06;;;;;;;7.82;3.42;;;;;;;;;;5015279;28;20034;-72
2023/06/08 06:41:31;;;;;;;8.82;3.40;;;;;;;;;;5013968;28;20530;-72
2023/06/08 06:43:56;;;;;;;6.43;3.00;;;;;;;;;;5014737;28;20114;-72
2023/06/08 06:46:22;;;;;;;9.65;3.55;;;;;;;;;;5015001;28;20125;-72
2023/06/08 06:48:47;;;;;;;6.95;3.17;;;;;;;;;;5015060;28;20049;-73
2023/06/08 06:51:13;;;;;;;5.97;3.10;;;;;;;;;;5014120;28;20112;-72
2023/06/08 06:53:38;;;;;;;9.77;2.95;;;;;;;;;;5015013;28;20112;-73
2023/06/08 06:56:04;;;;;;;6.63;2.15;;;;;;;;;;5008119;28;20034;-72
2023/06/08 06:58:31;;;;;;;5.45;2.83;;;;;;;;;;5008409;28;20135;-72
2023/06/08 07:00:57;;;;;;;7.10;2.28;;;;;;;;;;5013834;28;20049;-72
2023/06/08 07:03:26;;;;;;;6.10;2.85;;;;;;;;;;5013931;28;20037;-72
2023/06/08 07:05:57;;;;;;;5.38;3.53;;;;;;;;;;5014631;28;20044;-73
2023/06/08 07:08:27;;;;;;;4.97;2.60;;;;;;;;;;5013551;28;20041;-72
2023/06/08 07:10:52;;;;;;;7.80;2.85;;;;;;;;;;5014742;28;20037;-72
2023/06/08 07:13:17;;;;;;;5.72;3.10;;;;;;;;;;5014263;28;20084;-72
2023/06/08 07:15:43;;;;;;;5.88;3.20;;;;;;;;;;5014694;28;20087;-72
2023/06/08 07:18:08;;;;;;;11.13;3.25;;;;;;;;;;5014335;28;20026;-72
2023/06/08 07:20:34;;;;;;;10.20;2.97;;;;;;;;;;5014573;28;20057;-73
2023/06/08 07:22:59;;;;;;;6.57;3.22;;;;;;;;;;5014358;28;20030;-73
2023/06/08 07:25:24;;;;;;;6.82;3.22;;;;;;;;;;5014528;28;20049;-73
2023/06/08 07:27:50;;;;;;;4.30;2.92;;;;;;;;;;5012671;28;20038;-72
2023/06/08 07:30:15;;;;;;;5.13;3.05;;;;;;;;;;5013524;28;20041;-72
2023/06/08 07:32:43;;;;;;;7.93;3.70;;;;;;;;;;5013907;28;20545;-72
2023/06/08 07:35:09;;;;;;;3.85;2.78;;;;;;;;;;5013308;28;20133;-72
2023/06/08 07:37:34;;;;;;;5.95;3.20;;;;;;;;;;5014146;28;20038;-73
2023/06/08 07:40:00;;;;;;;9.43;2.75;;;;;;;;;;5005307;28;20033;-72
2023/06/08 07:42:25;;;;;;;7.47;2.83;;;;;;;;;;5011540;28;20041;-72
2023/06/08 07:44:50;;;;;;;9.27;2.72;;;;;;;;;;5011954;28;20030;-72
2023/06/08 07:47:17;;;;;;;8.80;2.90;;;;;;;;;;5011524;28;20038;-73
2023/06/08 07:49:42;;;;;;;4.05;2.15;;;;;;;;;;5010690;28;20103;-73
2023/06/08 07:52:08;;;;;;;4.90;2.75;;;;;;;;;;5001999;28;20471;-72
2023/06/08 07:54:33;;;;;;;4.93;2.67;;;;;;;;;;5011092;28;20046;-72
2023/06/08 07:56:58;;;;;;;5.03;2.42;;;;;;;;;;5009143;28;20050;-72
2023/06/08 07:59:23;;;;;;;5.38;2.80;;;;;;;;;;5012392;28;20041;-73
2023/06/08 08:01:49;;;;;;;5.20;2.60;;;;;;;;;;5011254;28;20054;-73
2023/06/08 08:04:15;;;;;;;7.68;2.92;;;;;;;;;;5011478;28;20041;-72
2023/06/08 08:06:40;;;;;;;6.22;3.10;;;;;;;;;;4990413;28;20034;-73
2023/06/08 08:09:06;;;;;;;7.10;2.30;;;;;;;;;;5007432;28;20042;-72
2023/06/08 08:11:31;;;;;;;6.15;2.55;;;;;;;;;;5007852;28;20041;-72
2023/06/08 08:13:56;;;;;;;3.83;2.30;;;;;;;;;;5007821;28;20046;-72
2023/06/08 08:16:22;;;;;;;4.35;2.30;;;;;;;;;;4989940;28;20028;-73
2023/06/08 08:18:47;;;;;;;5.38;2.45;;;;;;;;;;5005407;28;20124;-73
2023/06/08 08:21:13;;;;;;;5.15;2.42;;;;;;;;;;5009047;28;20433;-73
2023/06/08 08:23:39;;;;;;;4.70;2.38;;;;;;;;;;5009460;28;20049;-73
2023/06/08 08:26:05;;;;;;;6.38;2.30;;;;;;;;;;5008714;28;20095;-72
2023/06/08 08:28:30;;;;;;;3.70;2.50;;;;;;;;;;4999608;28;20030;-73
2023/06/08 08:30:56;;;;;;;3.53;2.00;;;;;;;;;;5009452;28;20398;-72
2023/06/08 08:33:21;;;;;;;4.30;2.38;;;;;;;;;;5009509;28;20099;-73
2023/06/08 08:35:46;;;;;;;7.93;2.38;;;;;;;;;;5008969;28;20399;-73
2023/06/08 08:38:12;;;;;;;5.05;2.33;;;;;;;;;;5009325;28;20070;-72
2023/06/08 08:40:40;;;;;;;4.20;2.60;;;;;;;;;;5009872;28;20054;-72
2023/06/08 08:43:10;;;;;;;3.53;2.47;;;;;;;;;;5008792;28;20049;-72
2023/06/08 08:45:36;;;;;;;6.00;2.00;;;;;;;;;;5008645;28;20056;-73
2023/06/08 08:48:02;;;;;;;5.65;2.35;;;;;;;;;;5005440;28;20529;-73
2023/06/08 08:50:29;;;;;;;5.53;2.60;;;;;;;;;;5006865;28;20489;-73
2023/06/08 08:52:56;;;;;;;3.80;2.20;;;;;;;;;;5007789;28;20111;-73
2023/06/08 08:55:27;;;;;;;4.65;2.53;;;;;;;;;;5009038;28;20052;-73
2023/06/08 08:57:57;;;;;;;3.65;2.10;;;;;;;;;;4991282;28;20081;-70
2023/06/08 09:00:22;;;;;;;4.68;2.63;;;;;;;;;;5006478;28;20045;-73
2023/06/08 09:02:50;;;;;;;4.75;2.22;;;;;;;;;;5009132;28;20496;-71
2023/06/08 09:05:16;;;;;;;4.07;2.80;;;;;;;;;;5008010;28;20116;-71
2023/06/08 09:07:41;;;;;;;3.70;2.20;;;;;;;;;;5008774;28;20038;-70
2023/06/08 09:10:22;;;;;;;7.05;2.65;;;;;;;;;;5008428;28;20381;-70
2023/06/08 09:12:49;;;;;;;3.60;2.30;;;;;;;;;;5008720;28;20045;-71
2023/06/08 09:15:34;;;;;;;4.47;2.22;;;;;;;;;;5005697;28;20113;-71
2023/06/08 09:18:02;;;;;;;3.92;2.30;;;;;;;;;;5009084;28;20045;-71
2023/06/08 09:20:34;;;;;;;4.68;2.47;;;;;;;;;;5008919;28;20042;-71
2023/06/08 09:23:23;;;;;;;4.93;2.70;;;;;;;;;;5007915;28;20398;-71
2023/06/08 09:25:51;;;;;;;9.82;2.70;;;;;;;;;;5007247;28;20025;-70
2023/06/08 09:28:28;;;;;;;7.50;2.40;;;;;;;;;;5010451;28;20394;-71
2023/06/08 09:30:55;;;;;;;3.50;2.55;;;;;;;;;;5009261;28;20113;-71
2023/06/08 09:33:25;;;;;;;5.40;2.58;;;;;;;;;;5010713;28;20046;-71
2023/06/08 09:35:56;;;;;;;8.15;2.92;;;;;;;;;;5010901;28;20037;-71
2023/06/08 09:38:24;;;;;;;6.22;2.67;;;;;;;;;;5011853;28;20164;-70
2023/06/08 09:40:50;;;;;;;4.32;2.38;;;;;;;;;;5011678;28;20025;-71
2023/06/08 09:43:33;;;;;;;3.97;2.53;;;;;;;;;;5010798;28;20040;-71
2023/06/08 09:45:59;;;;;;;5.75;2.58;;;;;;;;;;5010495;28;20120;-71
2023/06/08 09:48:24;;;;;;;5.53;2.42;;;;;;;;;;5011874;28;20117;-70
2023/06/08 09:50:55;;;;;;;6.80;2.95;;;;;;;;;;5011948;28;20402;-73
2023/06/08 09:53:20;;;;;;;5.28;2.80;;;;;;;;;;5010562;28;20053;-70
2023/06/08 09:55:46;;;;;;;5.13;2.53;;;;;;;;;;5010781;28;20038;-72
2023/06/08 09:58:11;;;;;;;6.50;2.40;;;;;;;;;;5011417;28;20180;-73
2023/06/08 10:00:38;;;;;;;4.93;2.58;;;;;;;;;;5011336;28;20073;-72
2023/06/08 10:03:27;;;;;;;4.38;2.20;;;;;;;;;;5009723;28;20103;-73
2023/06/08 10:05:52;;;;;;;6.32;2.13;;;;;;;;;;5009758;28;20050;-73
2023/06/08 10:08:21;;;;;;;5.68;2.65;;;;;;;;;;5011831;28;20048;-72
2023/06/08 10:10:47;;;;;;;5.20;2.28;;;;;;;;;;5010289;28;20041;-72
2023/06/08 10:13:13;;;;;;;4.80;2.40;;;;;;;;;;5010605;28;20088;-72
2023/06/08 10:15:38;;;;;;;4.57;2.60;;;;;;;;;;5010133;28;20496;-72
2023/06/08 10:18:04;;;;;;;5.93;2.70;;;;;;;;;;5011018;28;20046;-72
2023/06/08 10:20:30;;;;;;;3.72;2.35;;;;;;;;;;5011226;28;20046;-72
2023/06/08 10:22:58;;;;;;;5.38;2.72;;;;;;;;;;5009335;28;20065;-73
2023/06/08 10:25:27;;;;;;;5.10;2.38;;;;;;;;;;4992306;28;20417;-72
2023/06/08 10:27:53;;;;;;;4.65;2.30;;;;;;;;;;5009381;28;20401;-72
2023/06/08 10:30:30;;;;;;;5.90;2.80;;;;;;;;;;5010493;28;20072;-72
2023/06/08 10:33:18;;;;;;;4.75;2.38;;;;;;;;;;5010592;28;20042;-72
2023/06/08 10:36:03;;;;;;;5.80;2.72;;;;;;;;;;5011525;28;20065;-72
2023/06/08 10:38:29;;;;;;;4.88;2.45;;;;;;;;;;4984896;28;20382;-72
2023/06/08 10:40:55;;;;;;;6.10;2.85;;;;;;;;;;5010257;28;20072;-72
2023/06/08 10:43:26;;;;;;;4.05;2.67;;;;;;;;;;5008409;28;20069;-72
2023/06/08 10:45:52;;;;;;;5.95;2.78;;;;;;;;;;5010616;28;20050;-72
2023/06/08 10:48:18;;;;;;;5.15;3.15;;;;;;;;;;5010700;28;20033;-72
2023/06/08 10:50:50;;;;;;;5.45;2.85;;;;;;;;;;5010732;28;20037;-72
2023/06/08 10:53:22;;;;;;;9.45;2.90;;;;;;;;;;5009457;28;20616;-72
2023/06/08 10:55:49;;;;;;;4.18;2.53;;;;;;;;;;5009360;28;20383;-72
2023/06/08 10:58:21;;;;;;;3.58;2.30;;;;;;;;;;5009200;28;20042;-72
2023/06/08 11:01:05;;;;;;;6.15;2.65;;;;;;;;;;5010383;28;20038;-72
2023/06/08 11:03:46;;;;;;;8.50;2.90;;;;;;;;;;5009119;28;20092;-72
2023/06/08 11:06:15;;;;;;;5.38;2.60;;;;;;;;;;5008834;28;20104;-72
2023/06/08 11:08:41;;;;;;;7.60;2.70;;;;;;;;;;5010014;28;20026;-72
2023/06/08 11:11:06;;;;;;;5.32;2.45;;;;;;;;;;5009783;28;20086;-72
2023/06/08 11:13:32;;;;;;;9.70;2.05;;;;;;;;;;5007189;28;20141;-72
2023/06/08 11:15:57;;;;;;;6.75;2.65;;;;;;;;;;5010727;28;20030;-72
2023/06/08 11:18:23;;;;;;;5.80;2.45;;;;;;;;;;5009621;28;20084;-72
2023/06/08 11:20:48;;;;;;;5.20;2.45;;;;;;;;;;5009921;28;20041;-72
2023/06/08 11:23:15;;;;;;;5.80;3.00;;;;;;;;;;5009194;28;20026;-72
2023/06/08 11:25:41;;;;;;;7.25;3.03;;;;;;;;;;5004903;28;20053;-72
2023/06/08 11:28:08;;;;;;;4.97;2.90;;;;;;;;;;5006803;28;20038;-72
2023/06/08 11:30:37;;;;;;;6.88;2.30;;;;;;;;;;5008013;28;20121;-72
2023/06/08 11:33:07;;;;;;;5.05;2.50;;;;;;;;;;4996670;28;20061;-72
2023/06/08 11:35:33;;;;;;;4.45;2.70;;;;;;;;;;5008267;28;20038;-72
2023/06/08 11:37:59;;;;;;;6.57;3.20;;;;;;;;;;5008707;28;20410;-72
2023/06/08 11:40:25;;;;;;;8.25;3.17;;;;;;;;;;5010115;28;20038;-72
2023/06/08 11:42:51;;;;;;;5.22;2.67;;;;;;;;;;5005226;28;20544;-72
2023/06/08 11:45:17;;;;;;;5.93;2.65;;;;;;;;;;5008427;28;20034;-72
2023/06/08 11:47:43;;;;;;;5.95;3.10;;;;;;;;;;5010078;28;20052;-71
2023/06/08 11:50:10;;;;;;;6.35;2.80;;;;;;;;;;5009559;28;20049;-72
2023/06/08 11:52:39;;;;;;;8.73;2.75;;;;;;;;;;5005226;28;20041;-72
2023/06/08 11:55:08;;;;;;;10.55;2.90;;;;;;;;;;5009048;28;20482;-72
2023/06/08 11:57:54;;;;;;;7.18;2.70;;;;;;;;;;5002331;28;20076;-72
2023/06/08 12:00:33;;;;;;;9.10;2.95;;;;;;;;;;5007731;28;20481;-71
2023/06/08 12:03:00;;;;;;;3.83;2.50;;;;;;;;;;5008923;28;20133;-71
2023/06/08 12:05:27;;;;;;;6.65;3.03;;;;;;;;;;5007738;28;20041;-72
2023/06/08 12:07:54;;;;;;;4.95;2.60;;;;;;;;;;5009507;28;20073;-72
2023/06/08 12:10:20;;;;;;;7.35;3.10;;;;;;;;;;5006986;28;20508;-72
2023/06/08 12:12:47;;;;;;;5.75;2.80;;;;;;;;;;5003205;28;20120;-72
2023/06/08 12:15:17;;;;;;;6.55;2.90;;;;;;;;;;5004146;28;20540;-72
2023/06/08 12:17:42;;;;;;;5.57;3.00;;;;;;;;;;5007565;28;20042;-72
2023/06/08 12:20:08;;;;;;;7.43;2.60;;;;;;;;;;5007522;28;20046;-72
2023/06/08 12:22:34;;;;;;;6.15;2.90;;;;;;;;;;5005944;28;20030;-72
2023/06/08 12:24:59;;;;;;;7.93;2.83;;;;;;;;;;5009852;28;20042;-72
2023/06/08 12:27:25;;;;;;;5.93;3.05;;;;;;;;;;5007817;28;20061;-72
2023/06/08 12:29:50;;;;;;;4.80;2.88;;;;;;;;;;5008723;28;20061;-72
2023/06/08 12:32:16;;;;;;;4.03;2.88;;;;;;;;;;5002283;28;20075;-72
2023/06/08 12:34:41;;;;;;;5.85;2.80;;;;;;;;;;4992675;28;20402;-72
2023/06/08 12:37:08;;;;;;;6.55;3.03;;;;;;;;;;5009803;28;20025;-72
2023/06/08 12:39:33;;;;;;;12.57;3.20;;;;;;;;;;5008295;28;20030;-72
2023/06/08 12:41:59;;;;;;;4.65;2.72;;;;;;;;;;5008612;28;20034;-72
2023/06/08 12:44:25;;;;;;;9.38;3.50;;;;;;;;;;5009085;28;20478;-72
2023/06/08 12:46:51;;;;;;;5.20;3.33;;;;;;;;;;5008336;28;20037;-71
2023/06/08 12:49:16;;;;;;;9.65;3.05;;;;;;;;;;5009580;28;20053;-72
2023/06/08 12:51:42;;;;;;;6.40;3.17;;;;;;;;;;5009012;28;20026;-72
2023/06/08 12:54:07;;;;;;;10.32;3.28;;;;;;;;;;5008567;28;20049;-72
2023/06/08 12:56:32;;;;;;;5.10;2.80;;;;;;;;;;5008847;28;20383;-72
2023/06/08 12:58:58;;;;;;;4.78;2.67;;;;;;;;;;5006765;28;20441;-72
2023/06/08 13:01:23;;;;;;;9.55;3.35;;;;;;;;;;5008598;28;20041;-72
2023/06/08 13:03:48;;;;;;;6.78;2.83;;;;;;;;;;5013055;28;20116;-72
2023/06/08 13:06:14;;;;;;;9.20;2.88;;;;;;;;;;5013125;28;20105;-72
2023/06/08 13:08:39;;;;;;;5.47;2.58;;;;;;;;;;5013072;28;20104;-72
2023/06/08 13:11:05;;;;;;;6.18;2.97;;;;;;;;;;5013668;28;20038;-72
2023/06/08 13:13:30;;;;;;;4.70;2.83;;;;;;;;;;4991594;28;20034;-72
2023/06/08 13:15:58;;;;;;;7.35;2.95;;;;;;;;;;5011843;28;20036;-72
2023/06/08 13:18:24;;;;;;;4.03;2.40;;;;;;;;;;5010458;28;20041;-72
2023/06/08 13:20:50;;;;;;;5.43;3.25;;;;;;;;;;5011187;28;20033;-72
2023/06/08 13:23:16;;;;;;;6.28;2.92;;;;;;;;;;5012583;28;20030;-71
2023/06/08 13:25:42;;;;;;;3.92;2.55;;;;;;;;;;5013683;28;20130;-72
2023/06/08 13:28:08;;;;;;;4.72;2.45;;;;;;;;;;5011941;28;20129;-72
2023/06/08 13:30:33;;;;;;;5.55;2.70;;;;;;;;;;5009326;28;20474;-72
2023/06/08 13:33:00;;;;;;;7.38;2.83;;;;;;;;;;5010342;28;20044;-72
2023/06/08 13:35:26;;;;;;;5.85;3.20;;;;;;;;;;5011958;28;20076;-72
2023/06/08 13:37:52;;;;;;;4.65;2.90;;;;;;;;;;5012204;28;20069;-72
2023/06/08 13:40:18;;;;;;;5.32;2.92;;;;;;;;;;5012780;28;20125;-72
2023/06/08 13:42:43;;;;;;;5.75;2.83;;;;;;;;;;5009480;28;20112;-72
2023/06/08 13:45:10;;;;;;;7.60;3.33;;;;;;;;;;5010801;28;20052;-72
2023/06/08 13:47:37;;;;;;;6.15;2.83;;;;;;;;;;5012307;28;20038;-72
2023/06/08 13:50:03;;;;;;;6.13;3.10;;;;;;;;;;5012557;28;20382;-71
2023/06/08 13:52:29;;;;;;;10.30;3.17;;;;;;;;;;5012777;28;20047;-72
2023/06/08 13:54:54;;;;;;;6.68;2.80;;;;;;;;;;5006065;28;20084;-72
2023/06/08 13:57:21;;;;;;;7.28;2.95;;;;;;;;;;5009942;28;20046;-72
2023/06/08 13:59:47;;;;;;;4.43;2.42;;;;;;;;;;5011578;28;20062;-72
2023/06/08 14:02:12;;;;;;;7.72;2.85;;;;;;;;;;5008849;28;20046;-72
2023/06/08 14:04:38;;;;;;;7.13;3.47;;;;;;;;;;5011572;28;20592;-72
2023/06/08 14:07:03;;;;;;;6.10;2.72;;;;;;;;;;5011654;28;20045;-72
2023/06/08 14:09:29;;;;;;;6.88;2.97;;;;;;;;;;5011666;28;20080;-72
2023/06/08 14:11:54;;;;;;;5.53;2.75;;;;;;;;;;5011504;28;20037;-72
2023/06/08 14:14:20;;;;;;;5.35;2.85;;;;;;;;;;5008108;28;20076;-72
2023/06/08 14:16:47;;;;;;;6.53;2.67;;;;;;;;;;5011598;28;20053;-72
2023/06/08 14:19:14;;;;;;;4.35;2.60;;;;;;;;;;5010466;28;20391;-72
2023/06/08 14:21:40;;;;;;;4.78;2.60;;;;;;;;;;5009930;28;20060;-72
2023/06/08 14:24:06;;;;;;;6.25;2.72;;;;;;;;;;5010841;28;20030;-72
2023/06/08 14:26:31;;;;;;;7.00;3.47;;;;;;;;;;5011184;28;20033;-72
2023/06/08 14:28:56;;;;;;;5.93;2.63;;;;;;;;;;5011054;28;20084;-71
2023/06/08 14:31:22;;;;;;;6.97;3.28;;;;;;;;;;5011314;28;20038;-72
2023/06/08 14:33:49;;;;;;;9.27;2.95;;;;;;;;;;5009927;28;20382;-72
2023/06/08 14:36:14;;;;;;;4.35;2.40;;;;;;;;;;5009672;28;20042;-72
2023/06/08 14:38:39;;;;;;;4.55;2.70;;;;;;;;;;5009874;28;20042;-72
2023/06/08 14:41:05;;;;;;;4.72;2.50;;;;;;;;;;5010110;28;20117;-71